createdAt,value
2019-05-16T00:01:52.420Z,44.27
2019-05-16T00:04:19.189Z,45.24
2019-05-16T00:06:47.988Z,44.91
2019-05-16T00:09:14.342Z,45.92
2019-05-16T00:11:41.130Z,45.50
2019-05-16T00:14:08.426Z,45.64
2019-05-16T00:16:37.851Z,43.92
2019-05-16T00:19:03.984Z,43.56
2019-05-16T00:21:30.605Z,43.32
2019-05-16T00:23:58.645Z,43.20
2019-05-16T00:26:25.383Z,43.01
2019-05-16T00:28:52.052Z,43.03
2019-05-16T00:31:18.637Z,43.70
2019-05-16T00:33:45.327Z,42.87
2019-05-16T00:36:12.134Z,43.37
2019-05-16T00:38:38.697Z,43.48
2019-05-16T00:41:05.479Z,44.01
2019-05-16T00:43:32.186Z,44.36
2019-05-16T00:45:59.175Z,44.12
2019-05-16T00:48:28.843Z,43.52
2019-05-16T00:50:58.279Z,43.55
2019-05-16T00:53:24.507Z,43.88
2019-05-16T00:55:52.569Z,44.20
2019-05-16T00:58:20.092Z,44.36
2019-05-16T01:00:49.843Z,44.10
2019-05-16T01:03:19.879Z,44.35
2019-05-16T01:05:48.104Z,44.39
2019-05-16T01:08:15.114Z,44.24
2019-05-16T01:13:18.563Z,44.75
2019-05-16T01:15:45.580Z,44.90
2019-05-16T01:18:12.296Z,45.25
2019-05-16T01:20:40.732Z,45.36
2019-05-16T01:23:08.865Z,45.83
2019-05-16T01:25:35.748Z,46.70
2019-05-16T01:28:02.431Z,46.46
2019-05-16T01:30:29.180Z,47.21
2019-05-16T01:32:58.135Z,46.90
2019-05-16T01:35:24.518Z,46.85
2019-05-16T01:37:51.202Z,47.19
2019-05-16T01:40:18.888Z,47.29
2019-05-16T01:42:45.867Z,46.37
2019-05-16T01:45:13.189Z,46.50
2019-05-16T01:47:39.947Z,47.05
2019-05-16T01:50:08.679Z,46.76
2019-05-16T01:52:38.069Z,47.07
2019-05-16T01:55:04.692Z,47.03
2019-05-16T01:57:31.284Z,47.09
2019-05-16T01:59:58.952Z,46.93
2019-05-16T02:02:25.946Z,47.60
2019-05-16T02:04:52.638Z,47.39
2019-05-16T02:07:19.413Z,47.94
2019-05-16T02:09:47.647Z,48.00
2019-05-16T02:12:14.511Z,47.73
2019-05-16T02:14:41.194Z,47.74
2019-05-16T02:17:08.686Z,48.05
2019-05-16T02:19:38.486Z,48.67
2019-05-16T02:22:05.208Z,48.55
2019-05-16T02:24:32.043Z,48.85
2019-05-16T02:26:59.145Z,49.43
2019-05-16T02:29:25.933Z,49.58
2019-05-16T02:31:52.687Z,49.85
2019-05-16T02:34:21.818Z,50.56
2019-05-16T02:37:09.568Z,51.30
2019-05-16T02:39:16.622Z,51.48
2019-05-16T02:41:46.264Z,51.83
2019-05-16T02:44:12.318Z,52.06
2019-05-16T02:46:41.850Z,53.03
2019-05-16T02:49:11.333Z,53.27
2019-05-16T02:51:36.720Z,52.96
2019-05-16T02:54:03.939Z,52.96
2019-05-16T02:56:31.779Z,53.37
2019-05-16T02:59:01.640Z,54.01
2019-05-16T03:01:27.389Z,54.04
2019-05-16T03:03:54.224Z,54.31
2019-05-16T03:06:21.897Z,54.24
2019-05-16T03:08:50.785Z,54.62
2019-05-16T03:11:20.836Z,54.80
2019-05-16T03:13:47.374Z,54.50
2019-05-16T03:16:15.335Z,54.85
2019-05-16T03:18:42.407Z,55.32
2019-05-16T03:21:11.333Z,55.17
2019-05-16T03:23:41.693Z,54.25
2019-05-16T03:26:06.963Z,54.58
2019-05-16T03:28:33.653Z,54.37
2019-05-16T03:31:05.397Z,54.40
2019-05-16T03:33:38.948Z,55.26
2019-05-16T03:35:57.585Z,54.68
2019-05-16T03:38:24.338Z,54.71
2019-05-16T03:40:52.367Z,55.01
2019-05-16T03:43:21.960Z,55.15
2019-05-16T03:45:52.223Z,54.93
2019-05-16T03:48:17.315Z,55.06
2019-05-16T03:50:44.016Z,55.18
2019-05-16T03:53:11.625Z,55.05
2019-05-16T03:55:40.703Z,54.95
2019-05-16T03:58:07.185Z,55.10
2019-05-16T04:01:02.276Z,54.63
2019-05-16T04:03:32.107Z,54.81
2019-05-16T04:05:56.751Z,53.93
2019-05-16T04:08:25.559Z,54.40
2019-05-16T04:10:52.699Z,53.69
2019-05-16T04:13:21.392Z,54.16
2019-05-16T04:15:51.780Z,53.35
2019-05-16T04:18:17.045Z,54.25
2019-05-16T04:20:43.801Z,53.94
2019-05-16T04:23:11.170Z,54.19
2019-05-16T04:25:40.986Z,54.62
2019-05-16T04:28:07.237Z,53.92
2019-05-16T04:30:33.993Z,54.73
2019-05-16T04:33:01.875Z,54.60
2019-05-16T04:35:31.526Z,54.34
2019-05-16T04:37:57.386Z,54.30
2019-05-16T04:40:24.091Z,54.37
2019-05-16T04:42:51.458Z,53.77
2019-05-16T04:45:21.115Z,53.65
2019-05-16T04:47:47.073Z,54.13
2019-05-16T04:50:15.529Z,53.98
2019-05-16T04:52:42.271Z,54.05
2019-05-16T04:55:11.800Z,54.18
2019-05-16T04:57:41.755Z,54.56
2019-05-16T05:00:10.871Z,54.76
2019-05-16T05:02:36.224Z,54.99
2019-05-16T05:05:03.085Z,54.72
2019-05-16T05:07:31.322Z,54.74
2019-05-16T05:10:00.576Z,55.21
2019-05-16T05:12:26.839Z,54.23
2019-05-16T05:14:53.546Z,54.70
2019-05-16T05:17:21.033Z,54.54
2019-05-16T05:19:50.455Z,54.34
2019-05-16T05:22:19.885Z,54.01
2019-05-16T05:24:46.568Z,54.15
2019-05-16T05:27:13.227Z,53.89
2019-05-16T05:29:40.010Z,53.47
2019-05-16T05:32:06.759Z,53.59
2019-05-16T05:34:33.417Z,53.36
2019-05-16T05:37:00.394Z,53.63
2019-05-16T05:39:27.210Z,53.39
2019-05-16T05:41:53.971Z,53.34
2019-05-16T05:44:21.284Z,52.75
2019-05-16T05:46:47.962Z,52.66
2019-05-16T05:49:14.728Z,52.24
2019-05-16T05:51:43.522Z,52.14
2019-05-16T05:54:10.831Z,51.88
2019-05-16T05:56:39.813Z,52.59
2019-05-16T05:59:11.359Z,52.02
2019-05-16T06:01:40.103Z,52.45
2019-05-16T06:04:05.854Z,51.30
2019-05-16T06:06:32.531Z,51.79
2019-05-16T06:09:00.661Z,51.39
2019-05-16T06:11:27.645Z,51.43
2019-05-16T06:13:54.421Z,50.96
2019-05-16T06:16:21.113Z,50.11
2019-05-16T06:18:50.309Z,49.48
2019-05-16T06:21:20.091Z,50.08
2019-05-16T06:23:46.094Z,50.37
2019-05-16T06:26:12.818Z,50.73
2019-05-16T06:28:41.216Z,50.65
2019-05-16T06:31:13.035Z,50.58
2019-05-16T06:33:36.620Z,51.31
2019-05-16T06:36:03.388Z,50.79
2019-05-16T06:38:31.068Z,50.92
2019-05-16T06:41:00.049Z,50.46
2019-05-16T06:43:26.487Z,51.33
2019-05-16T06:45:53.246Z,51.65
2019-05-16T06:48:21.325Z,52.17
2019-05-16T06:50:51.490Z,52.23
2019-05-16T06:53:17.182Z,53.28
2019-05-16T06:55:43.950Z,51.89
2019-05-16T06:58:10.760Z,52.32
2019-05-16T07:00:37.514Z,54.33
2019-05-16T07:03:04.302Z,52.69
2019-05-16T07:05:31.098Z,51.89
2019-05-16T07:08:20.150Z,52.40
2019-05-16T07:10:46.129Z,52.21
2019-05-16T07:13:12.934Z,51.29
2019-05-16T07:15:40.230Z,51.79
2019-05-16T07:18:10.898Z,51.78
2019-05-16T07:20:37.056Z,50.44
2019-05-16T07:23:03.923Z,52.24
2019-05-16T07:25:30.980Z,51.23
2019-05-16T07:28:17.397Z,51.45
2019-05-16T07:30:44.186Z,50.40
2019-05-16T07:33:11.017Z,51.05
2019-05-16T07:35:40.033Z,49.86
2019-05-16T07:38:06.489Z,49.78
2019-05-16T07:40:33.336Z,49.54
2019-05-16T07:43:00.172Z,51.00
2019-05-16T07:45:26.964Z,51.34
2019-05-16T07:47:53.792Z,49.04
2019-05-16T07:50:20.625Z,49.58
2019-05-16T07:52:47.324Z,50.26
2019-05-16T07:55:14.493Z,50.58
2019-05-16T07:57:41.162Z,51.10
2019-05-16T08:00:09.720Z,52.37
2019-05-16T08:02:36.572Z,52.28
2019-05-16T08:05:03.648Z,53.24
2019-05-16T08:07:33.633Z,53.42
2019-05-16T08:09:59.873Z,53.24
2019-05-16T08:12:27.458Z,54.23
2019-05-16T08:14:54.323Z,54.16
2019-05-16T08:17:21.828Z,53.85
2019-05-16T08:19:50.648Z,54.20
2019-05-16T08:22:17.257Z,55.02
2019-05-16T08:24:44.029Z,54.70
2019-05-16T08:27:12.158Z,55.69
2019-05-16T08:29:40.436Z,55.88
2019-05-16T08:32:11.193Z,56.02
2019-05-16T08:34:37.050Z,56.87
2019-05-16T08:37:03.720Z,56.96
2019-05-16T08:39:31.188Z,58.08
2019-05-16T08:42:07.052Z,57.18
2019-05-16T08:44:26.814Z,58.47
2019-05-16T08:46:57.982Z,58.12
2019-05-16T08:49:22.478Z,59.42
2019-05-16T08:51:52.889Z,60.74
2019-05-16T08:54:18.017Z,63.40
2019-05-16T08:56:44.786Z,63.96
2019-05-16T08:59:13.489Z,64.03
2019-05-16T09:01:51.566Z,63.34
2019-05-16T09:04:11.930Z,64.33
2019-05-16T09:06:42.203Z,66.32
2019-05-16T09:09:26.630Z,64.39
2019-05-16T09:11:44.135Z,66.24
2019-05-16T09:14:07.721Z,65.65
2019-05-16T09:16:33.348Z,67.38
2019-05-16T09:19:00.042Z,67.64
2019-05-16T09:21:27.566Z,67.46
2019-05-16T09:23:57.814Z,66.23
2019-05-16T09:26:24.053Z,66.40
2019-05-16T09:28:50.839Z,67.51
2019-05-16T09:31:18.450Z,67.70
2019-05-16T09:33:47.438Z,68.06
2019-05-16T09:36:17.236Z,72.66
2019-05-16T09:38:42.788Z,75.82
2019-05-16T09:41:09.554Z,76.34
2019-05-16T09:43:39.794Z,76.70
2019-05-16T09:46:07.850Z,76.16
2019-05-16T09:48:37.735Z,74.39
2019-05-16T09:51:03.557Z,72.58
2019-05-16T09:53:30.313Z,72.92
2019-05-16T09:55:57.711Z,71.93
2019-05-16T09:58:24.578Z,69.94
2019-05-16T10:00:51.356Z,70.56
2019-05-16T10:03:22.339Z,69.20
2019-05-16T10:05:46.944Z,71.05
2019-05-16T10:08:14.074Z,70.13
2019-05-16T10:10:41.096Z,68.23
2019-05-16T10:13:07.751Z,69.20
2019-05-16T10:15:34.531Z,66.43
2019-05-16T10:18:01.291Z,65.06
2019-05-16T10:20:28.083Z,65.53
2019-05-16T10:22:57.683Z,63.33
2019-05-16T10:25:23.530Z,65.90
2019-05-16T10:27:50.368Z,65.53
2019-05-16T10:30:17.757Z,65.44
2019-05-16T10:32:44.635Z,64.21
2019-05-16T10:35:11.902Z,61.60
2019-05-16T10:37:38.708Z,62.52
2019-05-16T10:40:07.307Z,61.36
2019-05-16T10:42:37.946Z,63.58
2019-05-16T10:45:08.624Z,62.13
2019-05-16T10:47:37.100Z,63.37
2019-05-16T10:50:05.152Z,63.54
2019-05-16T10:52:31.942Z,62.70
2019-05-16T10:55:02.283Z,61.32
2019-05-16T10:57:29.926Z,61.92
2019-05-16T11:00:06.498Z,62.22
2019-05-16T11:02:27.393Z,62.08
2019-05-16T11:05:02.857Z,62.74
2019-05-16T11:07:22.384Z,63.97
2019-05-16T11:09:57.883Z,65.36
2019-05-16T11:12:20.523Z,65.07
2019-05-16T11:14:47.850Z,64.88
2019-05-16T11:17:14.476Z,64.90
2019-05-16T11:19:41.618Z,65.24
2019-05-16T11:22:08.326Z,65.27
2019-05-16T11:24:37.707Z,65.13
2019-05-16T11:27:07.408Z,64.39
2019-05-16T11:29:36.482Z,65.34
2019-05-16T11:32:02.686Z,64.79
2019-05-16T11:34:31.837Z,65.79
2019-05-16T11:37:01.687Z,65.51
2019-05-16T11:39:28.444Z,64.93
2019-05-16T11:41:57.119Z,66.06
2019-05-16T11:44:28.173Z,67.17
2019-05-16T11:46:52.620Z,68.57
2019-05-16T11:49:19.388Z,68.74
2019-05-16T11:51:47.523Z,70.79
2019-05-16T11:54:14.319Z,72.05
2019-05-16T11:57:02.431Z,72.96
2019-05-16T11:59:31.380Z,72.90
2019-05-16T12:01:58.102Z,73.47
2019-05-16T12:04:24.664Z,74.37
2019-05-16T12:06:51.356Z,74.47
2019-05-16T12:09:18.160Z,73.29
2019-05-16T12:11:45.130Z,72.10
2019-05-16T12:14:11.718Z,71.02
2019-05-16T12:16:40.566Z,71.89
2019-05-16T12:19:07.276Z,71.75
2019-05-16T12:21:35.397Z,71.55
2019-05-16T12:24:03.086Z,70.74
2019-05-16T12:26:29.673Z,71.14
2019-05-16T12:28:57.285Z,70.85
2019-05-16T12:31:24.243Z,71.27
2019-05-16T12:33:50.939Z,71.86
2019-05-16T12:36:17.786Z,71.65
2019-05-16T12:38:46.770Z,72.22
2019-05-16T12:41:13.265Z,72.63
2019-05-16T12:43:49.539Z,73.54
2019-05-16T12:46:11.592Z,72.82
2019-05-16T12:48:47.428Z,72.44
2019-05-16T12:51:14.075Z,73.62
2019-05-16T12:53:43.746Z,76.37
2019-05-16T12:56:10.414Z,76.60
2019-05-16T12:58:42.176Z,76.74
2019-05-16T13:01:09.229Z,76.22
2019-05-16T13:03:37.778Z,76.59
2019-05-16T13:06:04.936Z,76.44
2019-05-16T13:08:34.052Z,76.35
2019-05-16T13:11:01.059Z,76.39
2019-05-16T13:13:28.020Z,76.63
2019-05-16T13:15:54.859Z,76.12
2019-05-16T13:18:21.576Z,75.56
2019-05-16T13:20:48.378Z,75.31
2019-05-16T13:23:18.072Z,73.82
2019-05-16T13:25:43.859Z,75.05
2019-05-16T13:28:12.752Z,73.77
2019-05-16T13:30:39.739Z,74.12
2019-05-16T13:33:07.310Z,74.33
2019-05-16T13:35:36.751Z,74.06
2019-05-16T13:38:03.043Z,73.62
2019-05-16T13:40:29.757Z,72.82
2019-05-16T13:42:57.380Z,73.84
2019-05-16T13:45:26.990Z,72.46
2019-05-16T13:47:52.686Z,72.92
2019-05-16T13:50:19.564Z,72.06
2019-05-16T13:52:48.092Z,70.87
2019-05-16T13:55:16.771Z,71.28
2019-05-16T13:57:43.740Z,71.75
2019-05-16T14:00:12.626Z,72.19
2019-05-16T14:02:41.771Z,72.57
2019-05-16T14:05:29.866Z,72.77
2019-05-16T14:07:57.250Z,72.51
2019-05-16T14:10:23.939Z,72.73
2019-05-16T14:12:50.604Z,73.87
2019-05-16T14:15:18.255Z,72.80
2019-05-16T14:17:45.087Z,71.87
2019-05-16T14:20:14.934Z,73.08
2019-05-16T14:22:41.399Z,73.72
2019-05-16T14:25:08.495Z,74.03
2019-05-16T14:27:37.851Z,73.41
2019-05-16T14:30:07.428Z,73.88
2019-05-16T14:32:33.502Z,74.27
2019-05-16T14:35:00.212Z,73.81
2019-05-16T14:37:27.105Z,74.33
2019-05-16T14:39:57.826Z,74.07
2019-05-16T14:42:23.805Z,74.31
2019-05-16T14:45:06.715Z,75.47
2019-05-16T14:47:19.067Z,75.02
2019-05-16T14:49:48.672Z,75.32
2019-05-16T14:52:14.409Z,76.33
2019-05-16T14:54:41.075Z,78.16
2019-05-16T14:57:07.880Z,78.31
2019-05-16T14:59:36.493Z,78.46
2019-05-16T15:02:07.102Z,79.04
2019-05-16T15:04:33.777Z,78.64
2019-05-16T15:07:00.548Z,79.95
2019-05-16T15:09:28.599Z,79.33
2019-05-16T15:11:58.142Z,80.32
2019-05-16T15:14:23.981Z,80.34
2019-05-16T15:16:51.988Z,81.55
2019-05-16T15:19:18.773Z,81.42
2019-05-16T15:21:47.635Z,80.43
2019-05-16T15:24:14.010Z,80.02
2019-05-16T15:26:40.844Z,80.79
2019-05-16T15:29:08.311Z,80.37
2019-05-16T15:31:36.346Z,80.45
2019-05-16T15:34:03.711Z,80.82
2019-05-16T15:36:30.393Z,81.28
2019-05-16T15:38:59.563Z,81.93
2019-05-16T15:41:27.296Z,82.16
2019-05-16T15:43:59.004Z,82.73
2019-05-16T15:46:23.352Z,82.18
2019-05-16T15:48:50.323Z,82.24
2019-05-16T15:51:38.536Z,82.39
2019-05-16T15:54:06.721Z,82.93
2019-05-16T15:56:34.077Z,82.96
2019-05-16T15:59:02.373Z,82.34
2019-05-16T16:01:29.026Z,82.57
2019-05-16T16:03:58.589Z,83.38
2019-05-16T16:06:27.447Z,83.29
2019-05-16T16:08:54.100Z,83.31
2019-05-16T16:11:22.295Z,84.29
2019-05-16T16:13:48.990Z,84.70
2019-05-16T16:16:17.403Z,87.01
2019-05-16T16:18:46.701Z,88.20
2019-05-16T16:21:12.937Z,89.32
2019-05-16T16:23:39.723Z,89.13
2019-05-16T16:26:07.567Z,89.38
2019-05-16T16:28:37.905Z,89.28
2019-05-16T16:31:03.881Z,89.16
2019-05-16T16:33:30.568Z,89.25
2019-05-16T16:35:57.416Z,89.32
2019-05-16T16:38:24.133Z,89.26
2019-05-16T16:40:50.791Z,88.80
2019-05-16T16:43:17.449Z,88.56
2019-05-16T16:45:47.732Z,87.56
2019-05-16T16:48:13.210Z,87.40
2019-05-16T16:50:40.847Z,87.66
2019-05-16T16:53:07.627Z,87.56
2019-05-16T16:55:36.823Z,87.45
2019-05-16T16:58:09.518Z,87.72
2019-05-16T17:00:38.426Z,87.23
2019-05-16T17:03:10.411Z,87.55
2019-05-16T17:05:36.996Z,87.36
2019-05-16T17:08:03.738Z,87.73
2019-05-16T17:10:30.502Z,88.05
2019-05-16T17:12:57.771Z,88.39
2019-05-16T17:15:27.026Z,88.31
2019-05-16T17:17:53.442Z,88.35
2019-05-16T17:20:21.114Z,88.39
2019-05-16T17:22:47.886Z,88.38
2019-05-16T17:25:14.855Z,88.31
2019-05-16T17:27:41.646Z,88.17
2019-05-16T17:30:13.857Z,88.14
2019-05-16T17:32:43.430Z,88.19
2019-05-16T17:35:10.184Z,88.31
2019-05-16T17:37:37.489Z,88.21
2019-05-16T17:40:05.257Z,88.15
2019-05-16T17:42:34.493Z,88.08
2019-05-16T17:45:00.595Z,88.04
2019-05-16T17:47:27.296Z,88.04
2019-05-16T17:49:54.065Z,87.36
2019-05-16T17:52:20.644Z,87.54
2019-05-16T17:54:47.424Z,87.68
2019-05-16T17:57:14.180Z,87.86
2019-05-16T17:59:40.852Z,88.09
2019-05-16T18:02:07.536Z,87.89
2019-05-16T18:04:34.217Z,88.03
2019-05-16T18:07:00.879Z,88.31
2019-05-16T18:09:27.884Z,88.56
2019-05-16T18:11:54.650Z,88.84
2019-05-16T18:14:21.434Z,88.40
2019-05-16T18:16:57.876Z,88.25
2019-05-16T18:19:17.348Z,88.23
2019-05-16T18:21:46.443Z,88.10
2019-05-16T18:24:13.285Z,88.11
2019-05-16T18:26:40.071Z,87.96
2019-05-16T18:29:07.546Z,88.36
2019-05-16T18:31:34.369Z,88.47
2019-05-16T18:34:01.084Z,88.22
2019-05-16T18:36:27.708Z,88.45
2019-05-16T18:38:54.287Z,88.71
2019-05-16T18:41:21.945Z,88.83
2019-05-16T18:43:48.764Z,88.94
2019-05-16T18:46:16.352Z,88.83
2019-05-16T18:48:43.201Z,88.92
2019-05-16T18:51:10.016Z,88.95
2019-05-16T18:53:39.249Z,88.95
2019-05-16T18:56:07.759Z,88.91
2019-05-16T18:58:37.025Z,88.59
2019-05-16T19:01:03.337Z,88.67
2019-05-16T19:03:30.378Z,88.81
2019-05-16T19:05:57.398Z,88.93
2019-05-16T19:08:26.877Z,88.94
2019-05-16T19:10:52.950Z,89.07
2019-05-16T19:13:19.628Z,89.15
2019-05-16T19:15:49.239Z,89.26
2019-05-16T19:18:17.070Z,89.12
2019-05-16T19:20:46.069Z,88.96
2019-05-16T19:23:12.550Z,88.91
2019-05-16T19:25:39.328Z,88.78
2019-05-16T19:28:07.030Z,88.87
2019-05-16T19:30:37.542Z,89.09
2019-05-16T19:33:06.774Z,89.15
2019-05-16T19:35:33.403Z,89.16
2019-05-16T19:38:01.425Z,89.22
2019-05-16T19:40:31.172Z,89.00
2019-05-16T19:42:57.741Z,88.90
2019-05-16T19:45:26.449Z,89.11
2019-05-16T19:47:53.437Z,89.05
2019-05-16T19:50:22.364Z,89.15
2019-05-16T19:52:48.926Z,89.12
2019-05-16T19:55:17.832Z,89.06
2019-05-16T19:57:46.522Z,89.05
2019-05-16T20:00:13.659Z,89.15
2019-05-16T20:02:40.432Z,89.19
2019-05-16T20:05:08.341Z,89.44
2019-05-16T20:07:37.241Z,89.53
2019-05-16T20:10:06.993Z,89.50
2019-05-16T20:12:33.621Z,89.23
2019-05-16T20:15:08.188Z,89.30
2019-05-16T20:17:29.224Z,89.39
2019-05-16T20:19:56.383Z,89.51
2019-05-16T20:22:23.287Z,89.50
2019-05-16T20:24:50.042Z,89.28
2019-05-16T20:27:19.474Z,89.29
2019-05-16T20:29:47.461Z,89.11
2019-05-16T20:32:16.709Z,89.26
2019-05-16T20:34:42.939Z,89.44
2019-05-16T20:37:09.749Z,89.72
2019-05-16T20:39:37.138Z,89.85
2019-05-16T20:42:04.300Z,90.06
2019-05-16T20:44:31.091Z,90.23
2019-05-16T20:46:57.988Z,90.38
2019-05-16T20:49:26.990Z,90.40
2019-05-16T20:51:53.460Z,90.37
2019-05-16T20:54:20.207Z,90.31
2019-05-16T20:56:49.467Z,90.21
2019-05-16T20:59:17.439Z,89.96
2019-05-16T21:01:46.429Z,90.01
2019-05-16T21:04:13.358Z,90.04
2019-05-16T21:06:40.138Z,90.02
2019-05-16T21:09:06.911Z,89.83
2019-05-16T21:11:33.738Z,89.69
2019-05-16T21:14:00.762Z,89.61
2019-05-16T21:16:27.464Z,89.64
2019-05-16T21:18:57.376Z,89.60
2019-05-16T21:21:23.710Z,89.32
2019-05-16T21:23:50.371Z,89.38
2019-05-16T21:26:17.062Z,89.35
2019-05-16T21:28:43.623Z,89.26
2019-05-16T21:31:10.282Z,89.31
2019-05-16T21:33:37.356Z,89.32
2019-05-16T21:36:04.129Z,89.26
2019-05-16T21:38:30.945Z,89.33
2019-05-16T21:40:58.383Z,89.37
2019-05-16T21:43:27.143Z,89.37
2019-05-16T21:45:53.931Z,89.40
2019-05-16T21:48:20.708Z,89.41
2019-05-16T21:50:47.488Z,89.66
2019-05-16T21:53:14.282Z,89.69
2019-05-16T21:55:41.003Z,89.88
2019-05-16T21:58:08.007Z,89.71
2019-05-16T22:00:42.403Z,89.57
2019-05-16T22:03:09.291Z,89.80
2019-05-16T22:05:37.576Z,89.78
2019-05-16T22:08:04.663Z,89.81
2019-05-16T22:10:31.691Z,89.68
2019-05-16T22:13:07.762Z,89.71
2019-05-16T22:15:36.606Z,89.75
2019-05-16T22:18:03.662Z,89.82
2019-05-16T22:20:30.432Z,89.73
2019-05-16T22:22:58.431Z,89.71
2019-05-16T22:25:27.270Z,89.71
2019-05-16T22:27:54.179Z,89.86
2019-05-16T22:30:20.954Z,89.91
2019-05-16T22:32:47.867Z,89.93
2019-05-16T22:35:37.539Z,90.00
2019-05-16T22:38:06.535Z,90.00
2019-05-16T22:40:33.464Z,90.01
2019-05-16T22:43:00.121Z,90.00
2019-05-16T22:45:27.297Z,89.99
2019-05-16T22:47:53.978Z,90.04
2019-05-16T22:50:20.732Z,90.14
2019-05-16T22:52:47.514Z,90.21
2019-05-16T22:55:16.837Z,90.24
2019-05-16T22:57:43.399Z,90.18
2019-05-16T23:00:13.522Z,90.19
2019-05-16T23:02:40.234Z,90.33
2019-05-16T23:05:07.473Z,90.20
2019-05-16T23:07:36.770Z,90.06
2019-05-16T23:10:04.198Z,90.00
2019-05-16T23:12:30.868Z,90.00
2019-05-16T23:14:57.547Z,90.11
2019-05-16T23:17:26.578Z,90.22
2019-05-16T23:19:52.690Z,90.03
2019-05-16T23:22:19.815Z,89.96
2019-05-16T23:24:46.520Z,89.93
2019-05-16T23:27:13.272Z,89.63
2019-05-16T23:29:39.963Z,89.62
2019-05-16T23:32:07.449Z,89.36
2019-05-16T23:34:37.331Z,89.46
2019-05-16T23:37:06.326Z,89.44
2019-05-16T23:39:32.824Z,89.48
2019-05-16T23:41:59.503Z,89.50
2019-05-16T23:44:26.227Z,89.68
2019-05-16T23:46:53.021Z,89.89
2019-05-16T23:49:19.605Z,90.02
2019-05-16T23:51:47.297Z,90.08
2019-05-16T23:54:14.286Z,90.03
2019-05-16T23:56:41.067Z,90.10
2019-05-16T23:59:07.850Z,90.10
